sensor_id;sensor_type;location;lat;lon;timestamp;temperature;humidity
58554;DHT22;48119;53.218;6.576;2023-08-08T00:14:41;17.00;99.90
58554;DHT22;48119;53.218;6.576;2023-08-08T00:17:07;17.00;99.90
58554;DHT22;48119;53.218;6.576;2023-08-08T00:19:36;17.00;99.90
58554;DHT22;48119;53.218;6.576;2023-08-08T00:22:02;17.00;99.90
58554;DHT22;48119;53.218;6.576;2023-08-08T00:24:27;17.00;99.90
58554;DHT22;48119;53.218;6.576;2023-08-08T00:26:53;17.00;99.90
58554;DHT22;48119;53.218;6.576;2023-08-08T00:29:19;17.00;99.90
58554;DHT22;48119;53.218;6.576;2023-08-08T00:31:44;17.00;99.90
58554;DHT22;48119;53.218;6.576;2023-08-08T00:34:10;17.00;99.90
58554;DHT22;48119;53.218;6.576;2023-08-08T00:36:36;17.00;99.90
58554;DHT22;48119;53.218;6.576;2023-08-08T00:39:01;17.00;99.90
58554;DHT22;48119;53.218;6.576;2023-08-08T00:41:27;17.00;99.90
58554;DHT22;48119;53.218;6.576;2023-08-08T00:43:53;17.00;99.90
58554;DHT22;48119;53.218;6.576;2023-08-08T00:46:21;17.00;99.90
58554;DHT22;48119;53.218;6.576;2023-08-08T00:48:47;16.90;99.90
58554;DHT22;48119;53.218;6.576;2023-08-08T00:51:13;16.90;99.90
58554;DHT22;48119;53.218;6.576;2023-08-08T00:53:39;16.90;99.90
58554;DHT22;48119;53.218;6.576;2023-08-08T00:56:05;16.90;99.90
58554;DHT22;48119;53.218;6.576;2023-08-08T00:58:31;16.90;99.90
58554;DHT22;48119;53.218;6.576;2023-08-08T01:00:57;16.90;99.90
58554;DHT22;48119;53.218;6.576;2023-08-08T01:03:26;16.90;99.90
58554;DHT22;48119;53.218;6.576;2023-08-08T01:06:07;16.90;99.90
58554;DHT22;48119;53.218;6.576;2023-08-08T01:08:45;16.90;99.90
58554;DHT22;48119;53.218;6.576;2023-08-08T01:11:11;16.90;99.90
58554;DHT22;48119;53.218;6.576;2023-08-08T01:13:39;16.90;99.90
58554;DHT22;48119;53.218;6.576;2023-08-08T01:16:05;16.90;99.90
58554;DHT22;48119;53.218;6.576;2023-08-08T01:18:32;16.90;99.90
58554;DHT22;48119;53.218;6.576;2023-08-08T01:20:58;16.90;99.90
58554;DHT22;48119;53.218;6.576;2023-08-08T01:26:09;16.90;99.90
58554;DHT22;48119;53.218;6.576;2023-08-08T01:28:35;16.90;99.90
58554;DHT22;48119;53.218;6.576;2023-08-08T01:31:01;16.90;99.90
58554;DHT22;48119;53.218;6.576;2023-08-08T01:33:27;16.90;99.90
58554;DHT22;48119;53.218;6.576;2023-08-08T01:35:56;16.90;99.90
58554;DHT22;48119;53.218;6.576;2023-08-08T01:38:33;16.90;99.90
58554;DHT22;48119;53.218;6.576;2023-08-08T01:41:02;16.90;99.90
58554;DHT22;48119;53.218;6.576;2023-08-08T01:43:30;16.90;99.90
58554;DHT22;48119;53.218;6.576;2023-08-08T01:45:57;16.80;99.90
58554;DHT22;48119;53.218;6.576;2023-08-08T01:48:23;16.90;99.90
58554;DHT22;48119;53.218;6.576;2023-08-08T01:50:49;16.90;99.90
58554;DHT22;48119;53.218;6.576;2023-08-08T01:53:15;16.80;99.90
58554;DHT22;48119;53.218;6.576;2023-08-08T01:55:40;16.90;99.90
58554;DHT22;48119;53.218;6.576;2023-08-08T01:58:06;16.90;99.90
58554;DHT22;48119;53.218;6.576;2023-08-08T02:00:34;16.90;99.90
58554;DHT22;48119;53.218;6.576;2023-08-08T02:03:02;16.90;99.90
58554;DHT22;48119;53.218;6.576;2023-08-08T02:05:30;16.90;99.90
58554;DHT22;48119;53.218;6.576;2023-08-08T02:07:56;16.90;99.90
58554;DHT22;48119;53.218;6.576;2023-08-08T02:10:22;16.90;99.90
58554;DHT22;48119;53.218;6.576;2023-08-08T02:12:48;16.90;99.90
58554;DHT22;48119;53.218;6.576;2023-08-08T02:15:14;16.90;99.90
58554;DHT22;48119;53.218;6.576;2023-08-08T02:17:40;16.90;99.90
58554;DHT22;48119;53.218;6.576;2023-08-08T02:20:07;16.90;99.90
58554;DHT22;48119;53.218;6.576;2023-08-08T02:22:33;16.90;99.90
58554;DHT22;48119;53.218;6.576;2023-08-08T02:24:59;16.90;99.90
58554;DHT22;48119;53.218;6.576;2023-08-08T02:27:25;16.90;99.90
58554;DHT22;48119;53.218;6.576;2023-08-08T02:29:50;16.90;99.90
58554;DHT22;48119;53.218;6.576;2023-08-08T02:32:16;16.90;99.90
58554;DHT22;48119;53.218;6.576;2023-08-08T02:34:42;16.90;99.90
58554;DHT22;48119;53.218;6.576;2023-08-08T02:37:08;16.90;99.90
58554;DHT22;48119;53.218;6.576;2023-08-08T02:39:34;16.90;99.90
58554;DHT22;48119;53.218;6.576;2023-08-08T02:42:00;16.90;99.90
58554;DHT22;48119;53.218;6.576;2023-08-08T02:44:25;16.90;99.90
58554;DHT22;48119;53.218;6.576;2023-08-08T02:46:51;16.90;99.90
58554;DHT22;48119;53.218;6.576;2023-08-08T02:49:17;16.90;99.90
58554;DHT22;48119;53.218;6.576;2023-08-08T02:51:43;16.90;99.90
58554;DHT22;48119;53.218;6.576;2023-08-08T02:54:08;16.90;99.90
58554;DHT22;48119;53.218;6.576;2023-08-08T02:56:36;16.90;99.90
58554;DHT22;48119;53.218;6.576;2023-08-08T02:59:02;16.90;99.90
58554;DHT22;48119;53.218;6.576;2023-08-08T03:01:28;16.90;99.90
58554;DHT22;48119;53.218;6.576;2023-08-08T03:03:54;16.90;99.90
58554;DHT22;48119;53.218;6.576;2023-08-08T03:06:19;16.90;99.90
58554;DHT22;48119;53.218;6.576;2023-08-08T03:08:45;16.90;99.90
58554;DHT22;48119;53.218;6.576;2023-08-08T03:11:11;16.90;99.90
58554;DHT22;48119;53.218;6.576;2023-08-08T03:13:37;16.90;99.90
58554;DHT22;48119;53.218;6.576;2023-08-08T03:16:03;16.90;99.90
58554;DHT22;48119;53.218;6.576;2023-08-08T03:18:29;16.90;99.90
58554;DHT22;48119;53.218;6.576;2023-08-08T03:20:55;16.90;99.90
58554;DHT22;48119;53.218;6.576;2023-08-08T03:23:21;16.90;99.90
58554;DHT22;48119;53.218;6.576;2023-08-08T03:25:48;16.90;99.90
58554;DHT22;48119;53.218;6.576;2023-08-08T03:28:15;16.90;99.90
58554;DHT22;48119;53.218;6.576;2023-08-08T03:30:41;16.90;99.90
58554;DHT22;48119;53.218;6.576;2023-08-08T03:33:06;16.90;99.90
58554;DHT22;48119;53.218;6.576;2023-08-08T03:35:32;16.90;99.90
58554;DHT22;48119;53.218;6.576;2023-08-08T03:37:58;16.90;99.90
58554;DHT22;48119;53.218;6.576;2023-08-08T03:40:24;16.90;99.90
58554;DHT22;48119;53.218;6.576;2023-08-08T03:42:49;16.90;99.90
58554;DHT22;48119;53.218;6.576;2023-08-08T03:45:18;16.90;99.90
58554;DHT22;48119;53.218;6.576;2023-08-08T03:47:44;16.90;99.90
58554;DHT22;48119;53.218;6.576;2023-08-08T03:50:11;16.90;99.90
58554;DHT22;48119;53.218;6.576;2023-08-08T03:52:37;16.90;99.90
58554;DHT22;48119;53.218;6.576;2023-08-08T03:55:04;16.80;99.90
58554;DHT22;48119;53.218;6.576;2023-08-08T03:57:31;16.80;99.90
58554;DHT22;48119;53.218;6.576;2023-08-08T03:59:57;16.80;99.90
58554;DHT22;48119;53.218;6.576;2023-08-08T04:02:22;16.80;99.90
58554;DHT22;48119;53.218;6.576;2023-08-08T04:04:48;16.80;99.90
58554;DHT22;48119;53.218;6.576;2023-08-08T04:07:14;16.80;99.90
58554;DHT22;48119;53.218;6.576;2023-08-08T04:09:40;16.80;99.90
58554;DHT22;48119;53.218;6.576;2023-08-08T04:12:06;16.80;99.90
58554;DHT22;48119;53.218;6.576;2023-08-08T04:14:32;16.70;99.90
58554;DHT22;48119;53.218;6.576;2023-08-08T04:16:58;16.70;99.90
58554;DHT22;48119;53.218;6.576;2023-08-08T04:19:23;16.70;99.90
58554;DHT22;48119;53.218;6.576;2023-08-08T04:21:49;16.70;99.90
58554;DHT22;48119;53.218;6.576;2023-08-08T04:24:15;16.70;99.90
58554;DHT22;48119;53.218;6.576;2023-08-08T04:26:40;16.60;99.90
58554;DHT22;48119;53.218;6.576;2023-08-08T04:29:06;16.70;99.90
58554;DHT22;48119;53.218;6.576;2023-08-08T04:31:32;16.60;99.90
58554;DHT22;48119;53.218;6.576;2023-08-08T04:33:57;16.60;99.90
58554;DHT22;48119;53.218;6.576;2023-08-08T04:36:27;16.60;99.90
58554;DHT22;48119;53.218;6.576;2023-08-08T04:38:53;16.60;99.90
58554;DHT22;48119;53.218;6.576;2023-08-08T04:41:19;16.60;99.90
58554;DHT22;48119;53.218;6.576;2023-08-08T04:43:45;16.60;99.90
58554;DHT22;48119;53.218;6.576;2023-08-08T04:46:11;16.60;99.90
58554;DHT22;48119;53.218;6.576;2023-08-08T04:48:37;16.60;99.90
58554;DHT22;48119;53.218;6.576;2023-08-08T04:51:07;16.60;99.90
58554;DHT22;48119;53.218;6.576;2023-08-08T04:53:36;16.70;99.90
58554;DHT22;48119;53.218;6.576;2023-08-08T04:56:02;16.60;99.90
58554;DHT22;48119;53.218;6.576;2023-08-08T04:58:27;16.60;99.90
58554;DHT22;48119;53.218;6.576;2023-08-08T05:00:53;16.70;99.90
58554;DHT22;48119;53.218;6.576;2023-08-08T05:03:20;16.60;99.90
58554;DHT22;48119;53.218;6.576;2023-08-08T05:05:46;16.60;99.90
58554;DHT22;48119;53.218;6.576;2023-08-08T05:08:13;16.70;99.90
58554;DHT22;48119;53.218;6.576;2023-08-08T05:10:39;16.70;99.90
58554;DHT22;48119;53.218;6.576;2023-08-08T05:13:05;16.70;99.90
58554;DHT22;48119;53.218;6.576;2023-08-08T05:15:40;16.70;99.90
58554;DHT22;48119;53.218;6.576;2023-08-08T05:18:05;16.70;99.90
58554;DHT22;48119;53.218;6.576;2023-08-08T05:20:31;16.70;99.90
58554;DHT22;48119;53.218;6.576;2023-08-08T05:22:57;16.70;99.90
58554;DHT22;48119;53.218;6.576;2023-08-08T05:25:23;16.70;99.90
58554;DHT22;48119;53.218;6.576;2023-08-08T05:27:49;16.70;99.90
58554;DHT22;48119;53.218;6.576;2023-08-08T05:30:15;16.70;99.90
58554;DHT22;48119;53.218;6.576;2023-08-08T05:32:41;16.70;99.90
58554;DHT22;48119;53.218;6.576;2023-08-08T05:35:07;16.70;99.90
58554;DHT22;48119;53.218;6.576;2023-08-08T05:37:33;16.70;99.90
58554;DHT22;48119;53.218;6.576;2023-08-08T05:39:59;16.80;99.90
58554;DHT22;48119;53.218;6.576;2023-08-08T05:42:25;16.70;99.90
58554;DHT22;48119;53.218;6.576;2023-08-08T05:44:51;16.80;99.90
58554;DHT22;48119;53.218;6.576;2023-08-08T05:47:16;16.80;99.90
58554;DHT22;48119;53.218;6.576;2023-08-08T05:49:42;16.80;99.90
58554;DHT22;48119;53.218;6.576;2023-08-08T05:52:08;16.80;99.90
58554;DHT22;48119;53.218;6.576;2023-08-08T05:54:34;16.80;99.90
58554;DHT22;48119;53.218;6.576;2023-08-08T05:57:01;16.80;99.90
58554;DHT22;48119;53.218;6.576;2023-08-08T05:59:27;16.80;99.90
58554;DHT22;48119;53.218;6.576;2023-08-08T06:01:53;16.80;99.90
58554;DHT22;48119;53.218;6.576;2023-08-08T06:04:18;16.90;99.90
58554;DHT22;48119;53.218;6.576;2023-08-08T06:06:44;16.90;99.90
58554;DHT22;48119;53.218;6.576;2023-08-08T06:09:10;16.90;99.90
58554;DHT22;48119;53.218;6.576;2023-08-08T06:11:36;16.90;99.90
58554;DHT22;48119;53.218;6.576;2023-08-08T06:14:01;16.90;99.90
58554;DHT22;48119;53.218;6.576;2023-08-08T06:16:27;16.90;99.90
58554;DHT22;48119;53.218;6.576;2023-08-08T06:18:53;16.90;99.90
58554;DHT22;48119;53.218;6.576;2023-08-08T06:21:19;16.90;99.90
58554;DHT22;48119;53.218;6.576;2023-08-08T06:23:45;17.00;99.90
58554;DHT22;48119;53.218;6.576;2023-08-08T06:26:12;17.00;99.90
58554;DHT22;48119;53.218;6.576;2023-08-08T06:28:37;17.00;99.90
58554;DHT22;48119;53.218;6.576;2023-08-08T06:31:03;17.10;99.90
58554;DHT22;48119;53.218;6.576;2023-08-08T06:33:32;17.00;99.90
58554;DHT22;48119;53.218;6.576;2023-08-08T06:35:58;17.10;99.90
58554;DHT22;48119;53.218;6.576;2023-08-08T06:38:24;17.10;99.90
58554;DHT22;48119;53.218;6.576;2023-08-08T06:40:52;17.10;99.90
58554;DHT22;48119;53.218;6.576;2023-08-08T06:43:18;17.20;99.90
58554;DHT22;48119;53.218;6.576;2023-08-08T06:45:44;17.10;99.90
58554;DHT22;48119;53.218;6.576;2023-08-08T06:48:12;17.20;99.90
58554;DHT22;48119;53.218;6.576;2023-08-08T06:50:43;17.20;99.90
58554;DHT22;48119;53.218;6.576;2023-08-08T06:53:09;17.30;99.90
58554;DHT22;48119;53.218;6.576;2023-08-08T06:55:34;17.30;99.90
58554;DHT22;48119;53.218;6.576;2023-08-08T06:58:00;17.30;99.90
58554;DHT22;48119;53.218;6.576;2023-08-08T07:00:29;17.30;99.90
58554;DHT22;48119;53.218;6.576;2023-08-08T07:02:55;17.30;99.90
58554;DHT22;48119;53.218;6.576;2023-08-08T07:05:23;17.40;99.90
58554;DHT22;48119;53.218;6.576;2023-08-08T07:07:52;17.40;99.90
58554;DHT22;48119;53.218;6.576;2023-08-08T07:10:19;17.40;99.90
58554;DHT22;48119;53.218;6.576;2023-08-08T07:12:47;17.40;99.90
58554;DHT22;48119;53.218;6.576;2023-08-08T07:15:14;17.40;99.90
58554;DHT22;48119;53.218;6.576;2023-08-08T07:17:42;17.40;99.90
58554;DHT22;48119;53.218;6.576;2023-08-08T07:20:08;17.50;99.90
58554;DHT22;48119;53.218;6.576;2023-08-08T07:22:34;17.50;99.90
58554;DHT22;48119;53.218;6.576;2023-08-08T07:25:00;17.50;99.90
58554;DHT22;48119;53.218;6.576;2023-08-08T07:27:32;17.50;99.90
58554;DHT22;48119;53.218;6.576;2023-08-08T07:29:58;17.50;99.90
58554;DHT22;48119;53.218;6.576;2023-08-08T07:32:26;17.60;99.90
58554;DHT22;48119;53.218;6.576;2023-08-08T07:34:54;17.60;99.90
58554;DHT22;48119;53.218;6.576;2023-08-08T07:37:20;17.60;99.90
58554;DHT22;48119;53.218;6.576;2023-08-08T07:39:46;17.60;99.90
58554;DHT22;48119;53.218;6.576;2023-08-08T07:42:11;17.60;99.90
58554;DHT22;48119;53.218;6.576;2023-08-08T07:44:37;17.60;99.90
58554;DHT22;48119;53.218;6.576;2023-08-08T07:47:04;17.60;99.90
58554;DHT22;48119;53.218;6.576;2023-08-08T07:49:30;17.60;99.90
58554;DHT22;48119;53.218;6.576;2023-08-08T07:51:55;17.70;99.90
58554;DHT22;48119;53.218;6.576;2023-08-08T07:54:21;17.70;99.90
58554;DHT22;48119;53.218;6.576;2023-08-08T07:56:47;17.70;99.90
58554;DHT22;48119;53.218;6.576;2023-08-08T07:59:12;17.80;99.90
58554;DHT22;48119;53.218;6.576;2023-08-08T08:01:38;17.70;99.90
58554;DHT22;48119;53.218;6.576;2023-08-08T08:04:04;17.80;99.90
58554;DHT22;48119;53.218;6.576;2023-08-08T08:06:30;17.80;99.90
58554;DHT22;48119;53.218;6.576;2023-08-08T08:08:56;17.80;99.90
58554;DHT22;48119;53.218;6.576;2023-08-08T08:11:22;17.80;99.90
58554;DHT22;48119;53.218;6.576;2023-08-08T08:13:47;17.80;99.90
58554;DHT22;48119;53.218;6.576;2023-08-08T08:16:14;17.80;99.90
58554;DHT22;48119;53.218;6.576;2023-08-08T08:18:40;17.80;99.90
58554;DHT22;48119;53.218;6.576;2023-08-08T08:21:05;17.80;99.90
58554;DHT22;48119;53.218;6.576;2023-08-08T08:23:31;17.80;99.90
58554;DHT22;48119;53.218;6.576;2023-08-08T08:25:58;17.90;99.90
58554;DHT22;48119;53.218;6.576;2023-08-08T08:28:26;17.80;99.90
58554;DHT22;48119;53.218;6.576;2023-08-08T08:30:52;17.90;99.90
58554;DHT22;48119;53.218;6.576;2023-08-08T08:33:18;17.90;99.90
58554;DHT22;48119;53.218;6.576;2023-08-08T08:35:44;17.90;99.90
58554;DHT22;48119;53.218;6.576;2023-08-08T08:38:11;17.80;99.90
58554;DHT22;48119;53.218;6.576;2023-08-08T08:40:38;17.80;99.90
58554;DHT22;48119;53.218;6.576;2023-08-08T08:43:07;17.80;99.90
58554;DHT22;48119;53.218;6.576;2023-08-08T08:45:35;17.90;99.90
58554;DHT22;48119;53.218;6.576;2023-08-08T08:48:03;17.90;99.90
58554;DHT22;48119;53.218;6.576;2023-08-08T08:50:34;17.90;99.90
58554;DHT22;48119;53.218;6.576;2023-08-08T08:53:00;17.90;99.90
58554;DHT22;48119;53.218;6.576;2023-08-08T08:55:26;17.90;99.90
58554;DHT22;48119;53.218;6.576;2023-08-08T08:57:53;17.90;99.90
58554;DHT22;48119;53.218;6.576;2023-08-08T09:00:19;17.90;99.90
58554;DHT22;48119;53.218;6.576;2023-08-08T09:02:45;17.90;99.90
58554;DHT22;48119;53.218;6.576;2023-08-08T09:05:12;18.00;99.90
58554;DHT22;48119;53.218;6.576;2023-08-08T09:07:39;17.90;99.90
58554;DHT22;48119;53.218;6.576;2023-08-08T09:10:05;18.00;99.90
58554;DHT22;48119;53.218;6.576;2023-08-08T09:12:31;18.00;99.90
58554;DHT22;48119;53.218;6.576;2023-08-08T09:14:57;18.00;99.90
58554;DHT22;48119;53.218;6.576;2023-08-08T09:17:27;18.10;99.90
58554;DHT22;48119;53.218;6.576;2023-08-08T09:19:54;18.10;99.90
58554;DHT22;48119;53.218;6.576;2023-08-08T09:22:20;18.10;99.90
58554;DHT22;48119;53.218;6.576;2023-08-08T09:24:46;18.10;99.90
58554;DHT22;48119;53.218;6.576;2023-08-08T09:27:13;18.10;99.90
58554;DHT22;48119;53.218;6.576;2023-08-08T09:29:40;18.20;99.90
58554;DHT22;48119;53.218;6.576;2023-08-08T09:32:07;18.20;99.90
58554;DHT22;48119;53.218;6.576;2023-08-08T09:34:36;18.20;99.90
58554;DHT22;48119;53.218;6.576;2023-08-08T09:37:02;18.30;99.90
58554;DHT22;48119;53.218;6.576;2023-08-08T09:39:29;18.30;99.90
58554;DHT22;48119;53.218;6.576;2023-08-08T09:41:56;18.40;99.90
58554;DHT22;48119;53.218;6.576;2023-08-08T09:44:26;18.40;99.90
58554;DHT22;48119;53.218;6.576;2023-08-08T09:46:53;18.50;99.90
58554;DHT22;48119;53.218;6.576;2023-08-08T09:49:20;18.50;99.90
58554;DHT22;48119;53.218;6.576;2023-08-08T09:51:48;18.50;99.90
58554;DHT22;48119;53.218;6.576;2023-08-08T09:54:14;18.50;99.90
58554;DHT22;48119;53.218;6.576;2023-08-08T09:56:40;18.60;99.90
58554;DHT22;48119;53.218;6.576;2023-08-08T09:59:07;18.60;99.90
58554;DHT22;48119;53.218;6.576;2023-08-08T10:01:34;18.60;99.90
58554;DHT22;48119;53.218;6.576;2023-08-08T10:04:02;18.60;99.90
58554;DHT22;48119;53.218;6.576;2023-08-08T10:06:28;18.60;99.90
58554;DHT22;48119;53.218;6.576;2023-08-08T10:08:55;18.60;99.90
58554;DHT22;48119;53.218;6.576;2023-08-08T10:11:23;18.50;99.90
58554;DHT22;48119;53.218;6.576;2023-08-08T10:13:50;18.40;99.90
58554;DHT22;48119;53.218;6.576;2023-08-08T10:16:19;18.30;99.90
58554;DHT22;48119;53.218;6.576;2023-08-08T10:18:58;18.20;99.90
58554;DHT22;48119;53.218;6.576;2023-08-08T10:21:28;18.10;99.90
58554;DHT22;48119;53.218;6.576;2023-08-08T10:24:20;18.00;99.90
58554;DHT22;48119;53.218;6.576;2023-08-08T10:26:58;18.00;99.90
58554;DHT22;48119;53.218;6.576;2023-08-08T10:29:26;18.00;99.90
58554;DHT22;48119;53.218;6.576;2023-08-08T10:31:57;18.10;99.90
58554;DHT22;48119;53.218;6.576;2023-08-08T10:34:36;18.10;99.90
58554;DHT22;48119;53.218;6.576;2023-08-08T10:37:04;18.10;99.90
58554;DHT22;48119;53.218;6.576;2023-08-08T10:39:30;18.10;99.90
58554;DHT22;48119;53.218;6.576;2023-08-08T10:42:01;18.00;99.90
58554;DHT22;48119;53.218;6.576;2023-08-08T10:44:28;18.10;99.90
58554;DHT22;48119;53.218;6.576;2023-08-08T10:46:54;18.10;99.90
58554;DHT22;48119;53.218;6.576;2023-08-08T10:49:21;18.10;99.90
58554;DHT22;48119;53.218;6.576;2023-08-08T10:51:50;18.10;99.90
58554;DHT22;48119;53.218;6.576;2023-08-08T10:54:26;18.20;99.90
58554;DHT22;48119;53.218;6.576;2023-08-08T10:56:55;18.30;99.90
58554;DHT22;48119;53.218;6.576;2023-08-08T10:59:26;18.30;99.90
58554;DHT22;48119;53.218;6.576;2023-08-08T11:01:52;18.40;99.90
58554;DHT22;48119;53.218;6.576;2023-08-08T11:04:23;18.50;99.90
58554;DHT22;48119;53.218;6.576;2023-08-08T11:06:53;18.50;99.90
58554;DHT22;48119;53.218;6.576;2023-08-08T11:09:20;18.60;99.90
58554;DHT22;48119;53.218;6.576;2023-08-08T11:11:46;18.70;99.90
58554;DHT22;48119;53.218;6.576;2023-08-08T11:16:37;18.80;99.90
58554;DHT22;48119;53.218;6.576;2023-08-08T11:19:04;18.90;99.90
58554;DHT22;48119;53.218;6.576;2023-08-08T11:21:36;18.90;99.90
58554;DHT22;48119;53.218;6.576;2023-08-08T11:24:04;19.00;99.90
58554;DHT22;48119;53.218;6.576;2023-08-08T11:26:30;19.00;99.90
58554;DHT22;48119;53.218;6.576;2023-08-08T11:29:03;19.00;99.90
58554;DHT22;48119;53.218;6.576;2023-08-08T11:31:30;19.10;99.90
58554;DHT22;48119;53.218;6.576;2023-08-08T11:33:56;19.10;99.90
58554;DHT22;48119;53.218;6.576;2023-08-08T11:36:22;19.10;99.90
58554;DHT22;48119;53.218;6.576;2023-08-08T11:38:52;19.20;99.90
58554;DHT22;48119;53.218;6.576;2023-08-08T11:41:22;19.20;99.90
58554;DHT22;48119;53.218;6.576;2023-08-08T11:43:50;19.20;99.70
58554;DHT22;48119;53.218;6.576;2023-08-08T11:46:16;19.20;99.50
58554;DHT22;48119;53.218;6.576;2023-08-08T11:48:46;19.30;99.20
58554;DHT22;48119;53.218;6.576;2023-08-08T11:51:14;19.30;99.10
58554;DHT22;48119;53.218;6.576;2023-08-08T11:53:51;19.30;99.00
58554;DHT22;48119;53.218;6.576;2023-08-08T11:56:20;19.30;98.90
58554;DHT22;48119;53.218;6.576;2023-08-08T11:58:50;19.30;99.00
58554;DHT22;48119;53.218;6.576;2023-08-08T12:01:22;19.30;98.90
58554;DHT22;48119;53.218;6.576;2023-08-08T12:03:48;19.30;99.00
58554;DHT22;48119;53.218;6.576;2023-08-08T12:06:17;19.30;99.00
58554;DHT22;48119;53.218;6.576;2023-08-08T12:08:45;19.30;99.00
58554;DHT22;48119;53.218;6.576;2023-08-08T12:11:12;19.40;99.00
58554;DHT22;48119;53.218;6.576;2023-08-08T12:13:40;19.40;98.90
58554;DHT22;48119;53.218;6.576;2023-08-08T12:16:10;19.40;99.00
58554;DHT22;48119;53.218;6.576;2023-08-08T12:18:40;19.30;98.80
58554;DHT22;48119;53.218;6.576;2023-08-08T12:21:09;19.30;98.60
58554;DHT22;48119;53.218;6.576;2023-08-08T12:23:36;19.30;98.60
58554;DHT22;48119;53.218;6.576;2023-08-08T12:26:08;19.30;98.90
58554;DHT22;48119;53.218;6.576;2023-08-08T12:28:34;19.20;99.10
58554;DHT22;48119;53.218;6.576;2023-08-08T12:31:00;19.20;99.50
58554;DHT22;48119;53.218;6.576;2023-08-08T12:33:26;19.20;99.50
58554;DHT22;48119;53.218;6.576;2023-08-08T12:35:54;19.30;99.50
58554;DHT22;48119;53.218;6.576;2023-08-08T12:38:20;19.20;99.60
58554;DHT22;48119;53.218;6.576;2023-08-08T12:40:48;19.30;99.70
58554;DHT22;48119;53.218;6.576;2023-08-08T12:43:14;19.30;99.70
58554;DHT22;48119;53.218;6.576;2023-08-08T12:45:46;19.30;99.60
58554;DHT22;48119;53.218;6.576;2023-08-08T12:48:13;19.30;99.50
58554;DHT22;48119;53.218;6.576;2023-08-08T12:50:39;19.20;99.40
58554;DHT22;48119;53.218;6.576;2023-08-08T12:53:06;19.20;99.40
58554;DHT22;48119;53.218;6.576;2023-08-08T12:55:31;19.20;99.40
58554;DHT22;48119;53.218;6.576;2023-08-08T12:57:57;19.20;99.30
58554;DHT22;48119;53.218;6.576;2023-08-08T13:00:23;19.20;99.20
58554;DHT22;48119;53.218;6.576;2023-08-08T13:02:49;19.20;99.20
58554;DHT22;48119;53.218;6.576;2023-08-08T13:05:15;19.20;98.90
58554;DHT22;48119;53.218;6.576;2023-08-08T13:07:40;19.20;98.70
58554;DHT22;48119;53.218;6.576;2023-08-08T13:10:07;19.20;98.70
58554;DHT22;48119;53.218;6.576;2023-08-08T13:12:33;19.20;98.70
58554;DHT22;48119;53.218;6.576;2023-08-08T13:14:58;19.20;98.70
58554;DHT22;48119;53.218;6.576;2023-08-08T13:17:24;19.20;98.80
58554;DHT22;48119;53.218;6.576;2023-08-08T13:19:50;19.20;98.80
58554;DHT22;48119;53.218;6.576;2023-08-08T13:22:15;19.20;98.90
58554;DHT22;48119;53.218;6.576;2023-08-08T13:24:42;19.20;99.00
58554;DHT22;48119;53.218;6.576;2023-08-08T13:27:07;19.10;99.10
58554;DHT22;48119;53.218;6.576;2023-08-08T13:29:33;19.20;99.00
58554;DHT22;48119;53.218;6.576;2023-08-08T13:31:59;19.20;98.90
58554;DHT22;48119;53.218;6.576;2023-08-08T13:34:25;19.20;99.00
58554;DHT22;48119;53.218;6.576;2023-08-08T13:36:50;19.20;99.00
58554;DHT22;48119;53.218;6.576;2023-08-08T13:39:16;19.30;98.60
58554;DHT22;48119;53.218;6.576;2023-08-08T13:41:42;19.30;98.30
58554;DHT22;48119;53.218;6.576;2023-08-08T13:44:08;19.30;98.30
58554;DHT22;48119;53.218;6.576;2023-08-08T13:46:34;19.40;98.40
58554;DHT22;48119;53.218;6.576;2023-08-08T13:49:00;19.40;98.60
58554;DHT22;48119;53.218;6.576;2023-08-08T13:51:26;19.40;98.50
58554;DHT22;48119;53.218;6.576;2023-08-08T13:53:55;19.40;98.30
58554;DHT22;48119;53.218;6.576;2023-08-08T13:56:20;19.30;98.40
58554;DHT22;48119;53.218;6.576;2023-08-08T13:58:46;19.30;98.40
58554;DHT22;48119;53.218;6.576;2023-08-08T14:01:12;19.30;98.30
58554;DHT22;48119;53.218;6.576;2023-08-08T14:03:38;19.30;98.20
58554;DHT22;48119;53.218;6.576;2023-08-08T14:06:04;19.30;98.10
58554;DHT22;48119;53.218;6.576;2023-08-08T14:08:32;19.20;98.10
58554;DHT22;48119;53.218;6.576;2023-08-08T14:10:58;19.30;98.10
58554;DHT22;48119;53.218;6.576;2023-08-08T14:13:24;19.30;98.20
58554;DHT22;48119;53.218;6.576;2023-08-08T14:15:50;19.30;98.10
58554;DHT22;48119;53.218;6.576;2023-08-08T14:18:17;19.30;98.20
58554;DHT22;48119;53.218;6.576;2023-08-08T14:20:43;19.30;98.80
58554;DHT22;48119;53.218;6.576;2023-08-08T14:23:09;19.30;98.70
58554;DHT22;48119;53.218;6.576;2023-08-08T14:25:35;19.30;98.70
58554;DHT22;48119;53.218;6.576;2023-08-08T14:28:01;19.30;98.60
58554;DHT22;48119;53.218;6.576;2023-08-08T14:30:27;19.40;98.40
58554;DHT22;48119;53.218;6.576;2023-08-08T14:32:53;19.30;98.20
58554;DHT22;48119;53.218;6.576;2023-08-08T14:35:20;19.30;97.90
58554;DHT22;48119;53.218;6.576;2023-08-08T14:37:46;19.30;97.90
58554;DHT22;48119;53.218;6.576;2023-08-08T14:40:12;19.30;97.90
58554;DHT22;48119;53.218;6.576;2023-08-08T14:42:37;19.30;98.10
58554;DHT22;48119;53.218;6.576;2023-08-08T14:45:03;19.30;98.30
58554;DHT22;48119;53.218;6.576;2023-08-08T14:47:29;19.30;98.10
58554;DHT22;48119;53.218;6.576;2023-08-08T14:49:55;19.30;98.10
58554;DHT22;48119;53.218;6.576;2023-08-08T14:52:21;19.30;98.10
58554;DHT22;48119;53.218;6.576;2023-08-08T14:54:46;19.30;98.00
58554;DHT22;48119;53.218;6.576;2023-08-08T14:57:12;19.20;97.90
58554;DHT22;48119;53.218;6.576;2023-08-08T14:59:39;19.20;98.10
58554;DHT22;48119;53.218;6.576;2023-08-08T15:02:05;19.20;97.90
58554;DHT22;48119;53.218;6.576;2023-08-08T15:04:31;19.20;97.70
58554;DHT22;48119;53.218;6.576;2023-08-08T15:07:00;19.20;97.50
58554;DHT22;48119;53.218;6.576;2023-08-08T15:09:26;19.20;97.40
58554;DHT22;48119;53.218;6.576;2023-08-08T15:11:52;19.20;97.40
58554;DHT22;48119;53.218;6.576;2023-08-08T15:14:18;19.20;97.40
58554;DHT22;48119;53.218;6.576;2023-08-08T15:16:49;19.20;97.00
58554;DHT22;48119;53.218;6.576;2023-08-08T15:19:18;19.20;96.80
58554;DHT22;48119;53.218;6.576;2023-08-08T15:21:47;19.20;96.80
58554;DHT22;48119;53.218;6.576;2023-08-08T15:24:13;19.20;96.90
58554;DHT22;48119;53.218;6.576;2023-08-08T15:26:39;19.20;96.90
58554;DHT22;48119;53.218;6.576;2023-08-08T15:29:04;19.20;96.50
58554;DHT22;48119;53.218;6.576;2023-08-08T15:31:30;19.10;95.90
58554;DHT22;48119;53.218;6.576;2023-08-08T15:33:58;19.10;95.80
58554;DHT22;48119;53.218;6.576;2023-08-08T15:36:26;19.10;95.90
58554;DHT22;48119;53.218;6.576;2023-08-08T15:38:52;19.10;96.00
58554;DHT22;48119;53.218;6.576;2023-08-08T15:41:22;19.10;96.10
58554;DHT22;48119;53.218;6.576;2023-08-08T15:43:57;19.10;96.10
58554;DHT22;48119;53.218;6.576;2023-08-08T15:46:25;19.10;96.10